Time;durP1;ratioP1;P1;durP2;ratioP2;P2;SDS_P1;SDS_P2;PMS_P1;PMS_P2;Temp;Humidity;BMP_temperature;BMP_pressure;BME280_temperature;BME280_humidity;BME280_pressure;Samples;Min_cycle;Max_cycle;Signal;HPM_P1;HPM_P2
2022/09/03 00:01:33;;;;;;;1.17;0.90;;;16.80;94.50;;;;;;5113409;28;20042;-69
2022/09/03 00:04:07;;;;;;;2.22;0.77;;;16.70;94.60;;;;;;5112365;28;20043;-69
2022/09/03 00:06:42;;;;;;;4.18;0.98;;;16.80;94.60;;;;;;5092916;28;20476;-69
2022/09/03 00:09:36;;;;;;;2.08;0.90;;;16.70;94.50;;;;;;5084336;28;20085;-69
2022/09/03 00:12:01;;;;;;;3.63;0.93;;;16.80;94.50;;;;;;5113523;28;20031;-69
2022/09/03 00:15:10;;;;;;;2.17;0.93;;;16.70;94.50;;;;;;5108088;28;20412;-69
2022/09/03 00:17:48;;;;;;;3.50;0.93;;;16.70;94.90;;;;;;5093063;28;20048;-69
2022/09/03 00:20:29;;;;;;;3.58;1.00;;;16.70;94.80;;;;;;5113574;28;20074;-69
2022/09/03 00:22:57;;;;;;;4.32;1.00;;;16.70;95.00;;;;;;5113305;28;20032;-69
2022/09/03 00:25:35;;;;;;;1.77;1.05;;;16.60;95.00;;;;;;5098137;28;20485;-69
2022/09/03 00:28:06;;;;;;;2.72;1.02;;;16.60;95.40;;;;;;5111374;28;20046;-69
2022/09/03 00:30:33;;;;;;;5.68;1.10;;;16.60;95.30;;;;;;5107605;28;20050;-69
2022/09/03 00:33:05;;;;;;;2.10;0.95;;;16.50;95.20;;;;;;5103234;28;20120;-69
2022/09/03 00:35:43;;;;;;;4.30;1.00;;;16.50;95.30;;;;;;5111504;28;20063;-69
2022/09/03 00:38:09;;;;;;;3.78;1.08;;;16.50;95.60;;;;;;5110825;28;20403;-69
2022/09/03 00:40:47;;;;;;;3.17;1.23;;;16.50;95.60;;;;;;5113291;28;20044;-69
2022/09/03 00:43:34;;;;;;;6.15;1.23;;;16.50;95.80;;;;;;5113123;28;20499;-69
2022/09/03 00:46:18;;;;;;;2.85;1.20;;;16.40;95.80;;;;;;5109754;28;20115;-69
2022/09/03 00:49:17;;;;;;;3.13;1.10;;;16.30;95.80;;;;;;5113291;28;20456;-69
2022/09/03 00:51:58;;;;;;;3.60;1.08;;;16.30;96.10;;;;;;5113054;28;20118;-69
2022/09/03 00:54:44;;;;;;;1.88;0.77;;;16.30;96.20;;;;;;5113485;28;20035;-69
2022/09/03 00:57:24;;;;;;;2.47;0.88;;;16.30;96.40;;;;;;5106803;28;20036;-69
2022/09/03 01:00:15;;;;;;;4.20;1.00;;;16.30;96.50;;;;;;5113625;28;20446;-69
2022/09/03 01:03:04;;;;;;;2.50;0.95;;;16.20;96.20;;;;;;5129092;27;20047;-69
2022/09/03 01:05:38;;;;;;;5.10;1.30;;;16.20;96.50;;;;;;5096339;28;20044;-69
2022/09/03 01:08:20;;;;;;;3.25;1.05;;;16.20;96.70;;;;;;5146857;27;20123;-69
2022/09/03 01:11:25;;;;;;;2.72;0.95;;;16.20;96.70;;;;;;5115660;28;20555;-69
2022/09/03 01:14:14;;;;;;;2.47;1.20;;;16.20;96.80;;;;;;5116426;28;20055;-69
2022/09/03 01:16:55;;;;;;;6.78;1.38;;;16.20;96.60;;;;;;5099041;28;20108;-69
2022/09/03 01:19:52;;;;;;;2.90;0.82;;;16.20;96.70;;;;;;5116394;28;20035;-69
2022/09/03 01:22:33;;;;;;;3.80;1.00;;;16.10;97.00;;;;;;5095930;28;20036;-69
2022/09/03 01:25:40;;;;;;;1.55;0.90;;;16.10;97.10;;;;;;5114293;27;20100;-69
2022/09/03 01:28:20;;;;;;;2.88;1.00;;;16.10;96.90;;;;;;5114101;28;20395;-69
2022/09/03 01:31:10;;;;;;;2.03;0.80;;;16.00;97.00;;;;;;5098309;28;20097;-69
2022/09/03 01:33:49;;;;;;;3.47;0.90;;;16.00;97.20;;;;;;5095712;28;20040;-69
2022/09/03 01:36:41;;;;;;;2.05;0.90;;;16.00;97.10;;;;;;5095731;28;20114;-69
2022/09/03 01:39:19;;;;;;;3.05;0.98;;;16.00;97.40;;;;;;5095662;28;20051;-69
2022/09/03 01:42:15;;;;;;;1.67;0.80;;;15.90;97.20;;;;;;5095665;28;20044;-69
2022/09/03 01:44:50;;;;;;;4.25;0.90;;;16.00;97.90;;;;;;5079684;28;20054;-69
2022/09/03 01:47:21;;;;;;;4.03;1.08;;;15.90;97.60;;;;;;5106177;28;20050;-68
2022/09/03 01:49:58;;;;;;;6.05;0.85;;;15.90;97.70;;;;;;5116028;28;20087;-69
2022/09/03 01:52:44;;;;;;;3.40;0.90;;;15.80;98.00;;;;;;5114496;28;20395;-69
2022/09/03 01:55:20;;;;;;;2.15;1.13;;;15.80;97.70;;;;;;5103641;28;20067;-69
2022/09/03 01:58:31;;;;;;;4.22;1.00;;;15.70;97.70;;;;;;5109983;28;20047;-69
2022/09/03 02:01:04;;;;;;;3.33;0.90;;;15.80;98.10;;;;;;5112421;28;20047;-69
2022/09/03 02:03:37;;;;;;;2.67;0.85;;;15.80;97.90;;;;;;5115485;28;20039;-69
2022/09/03 02:06:06;;;;;;;4.07;0.90;;;15.70;97.90;;;;;;5095734;27;20024;-69
2022/09/03 02:08:32;;;;;;;5.22;0.90;;;15.70;98.00;;;;;;5114027;28;20040;-68
2022/09/03 02:11:01;;;;;;;1.88;0.75;;;15.70;98.00;;;;;;5114713;28;20051;-69
2022/09/03 02:13:33;;;;;;;4.78;1.10;;;15.70;98.20;;;;;;5112477;28;20096;-69
2022/09/03 02:16:06;;;;;;;1.30;0.93;;;15.70;98.30;;;;;;5114505;28;20123;-69
2022/09/03 02:18:36;;;;;;;1.70;0.93;;;15.60;98.30;;;;;;5094913;28;20504;-69
2022/09/03 02:21:02;;;;;;;2.67;0.80;;;15.70;98.40;;;;;;5094851;28;20118;-69
2022/09/03 02:23:28;;;;;;;5.65;1.00;;;15.60;98.70;;;;;;5099403;28;20040;-69
2022/09/03 02:26:00;;;;;;;3.15;0.95;;;15.60;98.60;;;;;;5095406;28;20035;-69
2022/09/03 02:28:28;;;;;;;5.03;1.00;;;15.60;98.70;;;;;;5104120;28;20080;-69
2022/09/03 02:30:54;;;;;;;1.42;0.80;;;15.60;98.80;;;;;;5096684;28;20089;-69
2022/09/03 02:33:19;;;;;;;2.05;0.90;;;15.60;98.90;;;;;;5107878;28;20043;-69
2022/09/03 02:35:46;;;;;;;1.88;0.90;;;15.70;98.80;;;;;;5105646;28;20032;-69
2022/09/03 02:38:27;;;;;;;2.40;1.10;;;15.60;98.80;;;;;;5100272;28;20525;-69
2022/09/03 02:40:53;;;;;;;2.03;0.85;;;15.60;99.00;;;;;;5079098;28;20036;-69
2022/09/03 02:43:49;;;;;;;2.45;0.93;;;15.60;99.00;;;;;;5100226;27;20040;-69
2022/09/03 02:46:21;;;;;;;3.15;1.05;;;15.50;99.00;;;;;;5094071;28;20040;-69
2022/09/03 02:48:46;;;;;;;3.95;1.08;;;15.50;99.00;;;;;;5100456;28;20126;-69
2022/09/03 02:51:12;;;;;;;4.32;1.48;;;15.60;98.90;;;;;;5111520;28;20555;-69
2022/09/03 02:53:38;;;;;;;1.80;0.95;;;15.70;98.90;;;;;;5112985;28;20046;-69
2022/09/03 02:56:03;;;;;;;1.95;0.90;;;15.60;98.90;;;;;;5108934;28;20101;-69
2022/09/03 02:58:30;;;;;;;3.03;1.13;;;15.60;98.90;;;;;;5099920;28;20039;-69
2022/09/03 03:00:56;;;;;;;4.95;1.20;;;15.60;99.00;;;;;;5106537;28;20032;-69
2022/09/03 03:03:22;;;;;;;2.20;1.00;;;15.60;98.80;;;;;;5094816;28;20416;-69
2022/09/03 03:05:54;;;;;;;2.92;1.02;;;15.60;98.90;;;;;;5100016;28;20035;-68
2022/09/03 03:08:23;;;;;;;2.42;1.10;;;15.70;99.00;;;;;;5095361;28;20028;-68
2022/09/03 03:10:52;;;;;;;1.73;0.85;;;15.60;98.90;;;;;;5106463;28;20107;-69
2022/09/03 03:13:18;;;;;;;1.35;0.90;;;15.60;99.10;;;;;;5112096;28;20060;-69
2022/09/03 03:15:43;;;;;;;2.28;1.00;;;15.60;98.80;;;;;;5099466;28;20054;-69
2022/09/03 03:18:13;;;;;;;2.40;1.00;;;15.60;98.90;;;;;;5078582;28;21439;-69
2022/09/03 03:20:40;;;;;;;2.92;1.20;;;15.60;99.10;;;;;;5105823;28;20046;-69
2022/09/03 03:23:06;;;;;;;2.30;1.02;;;15.60;99.30;;;;;;5103414;28;20043;-69
2022/09/03 03:25:36;;;;;;;2.25;1.00;;;15.60;99.40;;;;;;5108703;28;20039;-69
2022/09/03 03:28:03;;;;;;;2.05;1.10;;;15.50;99.40;;;;;;5114070;28;20038;-69
2022/09/03 03:30:29;;;;;;;2.13;0.98;;;15.50;99.30;;;;;;5106911;28;20040;-69
2022/09/03 03:32:55;;;;;;;2.83;1.20;;;15.50;99.60;;;;;;5095942;28;20126;-69
2022/09/03 03:35:21;;;;;;;3.92;1.00;;;15.50;99.70;;;;;;5110326;28;20084;-69
2022/09/03 03:37:46;;;;;;;1.83;0.90;;;15.40;99.80;;;;;;5114065;28;20039;-69
2022/09/03 03:40:12;;;;;;;5.75;1.20;;;15.40;99.70;;;;;;5116141;27;20047;-68
2022/09/03 03:42:38;;;;;;;2.70;1.20;;;15.30;99.90;;;;;;5108785;28;20036;-69
2022/09/03 03:45:05;;;;;;;3.80;1.00;;;15.30;99.90;;;;;;5110629;28;20077;-69
2022/09/03 03:47:31;;;;;;;4.18;1.20;;;15.30;99.90;;;;;;5111618;28;20106;-69
2022/09/03 03:49:57;;;;;;;2.08;1.17;;;15.20;99.90;;;;;;5099745;28;20063;-69
2022/09/03 03:52:23;;;;;;;2.63;1.08;;;15.10;99.90;;;;;;5110299;28;20114;-69
2022/09/03 03:54:50;;;;;;;3.88;1.10;;;15.10;99.90;;;;;;5108830;28;20372;-69
2022/09/03 03:57:16;;;;;;;2.22;1.20;;;15.10;99.90;;;;;;5112554;28;20082;-69
2022/09/03 03:59:41;;;;;;;2.33;1.10;;;15.10;99.90;;;;;;5101446;28;20047;-69
2022/09/03 04:02:07;;;;;;;3.83;1.25;;;15.10;99.90;;;;;;5102643;28;20052;-69
2022/09/03 04:04:32;;;;;;;2.25;1.23;;;15.00;99.90;;;;;;5112513;28;20036;-69
2022/09/03 04:06:58;;;;;;;2.63;1.15;;;15.00;99.90;;;;;;5105880;28;20039;-69
2022/09/03 04:09:24;;;;;;;3.00;1.27;;;15.00;99.90;;;;;;5102138;28;20491;-69
2022/09/03 04:11:49;;;;;;;2.30;1.23;;;15.00;99.90;;;;;;5109244;28;20039;-69
2022/09/03 04:14:19;;;;;;;2.90;1.30;;;14.90;99.90;;;;;;5111895;28;20058;-69
2022/09/03 04:16:45;;;;;;;3.45;1.40;;;14.90;99.90;;;;;;5094861;28;20040;-69
2022/09/03 04:19:12;;;;;;;2.22;1.27;;;14.90;99.90;;;;;;5093095;28;20040;-69
2022/09/03 04:21:38;;;;;;;2.30;1.13;;;14.80;99.90;;;;;;5103511;28;20047;-69
2022/09/03 04:24:04;;;;;;;4.72;1.35;;;14.80;99.90;;;;;;5109412;28;20031;-69
2022/09/03 04:26:32;;;;;;;4.25;1.92;;;14.70;99.90;;;;;;5105399;28;20039;-69
2022/09/03 04:29:03;;;;;;;2.08;1.30;;;14.70;99.90;;;;;;5103918;27;20036;-69
2022/09/03 04:31:29;;;;;;;2.35;1.20;;;14.70;99.90;;;;;;5106525;27;20036;-69
2022/09/03 04:33:55;;;;;;;3.90;1.65;;;14.60;99.90;;;;;;5108374;27;20092;-69
2022/09/03 04:36:23;;;;;;;3.45;1.55;;;14.50;99.90;;;;;;5116582;27;20468;-69
2022/09/03 04:38:52;;;;;;;2.35;1.23;;;14.50;99.90;;;;;;5106843;28;20054;-69
2022/09/03 04:41:20;;;;;;;3.45;1.30;;;14.60;99.90;;;;;;5102374;27;20044;-69
2022/09/03 04:43:47;;;;;;;2.58;1.20;;;14.60;99.90;;;;;;5102651;28;20048;-69
2022/09/03 04:46:15;;;;;;;3.08;1.45;;;14.50;99.90;;;;;;5112204;28;20047;-69
2022/09/03 04:48:40;;;;;;;2.55;1.50;;;14.50;99.90;;;;;;5078545;28;20047;-69
2022/09/03 04:51:10;;;;;;;4.40;1.75;;;14.30;99.90;;;;;;5101747;28;20396;-69
2022/09/03 04:53:41;;;;;;;4.95;1.60;;;14.30;99.90;;;;;;5115812;27;20101;-69
2022/09/03 04:56:18;;;;;;;1.95;1.40;;;14.40;99.90;;;;;;5078645;28;20055;-69
2022/09/03 04:58:45;;;;;;;3.55;1.60;;;14.30;99.90;;;;;;5113422;28;20039;-68
2022/09/03 05:01:16;;;;;;;4.25;1.48;;;14.30;99.90;;;;;;5114653;28;20095;-68
2022/09/03 05:03:41;;;;;;;7.55;1.88;;;14.20;99.90;;;;;;5110256;27;20415;-69
2022/09/03 05:06:07;;;;;;;8.73;2.00;;;14.30;99.90;;;;;;5103982;28;20101;-69
2022/09/03 05:08:35;;;;;;;7.22;1.90;;;14.30;99.90;;;;;;5117594;27;20036;-69
2022/09/03 05:11:05;;;;;;;7.45;1.77;;;14.20;99.90;;;;;;5097584;28;20046;-69
2022/09/03 05:13:32;;;;;;;6.18;1.90;;;14.20;99.90;;;;;;5102903;28;20055;-68
2022/09/03 05:16:03;;;;;;;9.45;1.75;;;14.20;99.90;;;;;;5114408;28;20054;-69
2022/09/03 05:18:28;;;;;;;7.22;1.70;;;14.20;99.90;;;;;;5105561;27;20046;-69
2022/09/03 05:21:02;;;;;;;8.60;2.13;;;14.20;99.90;;;;;;5104960;28;20040;-69
2022/09/03 05:23:29;;;;;;;6.97;2.05;;;14.20;99.90;;;;;;5127594;27;20048;-69
2022/09/03 05:26:01;;;;;;;8.15;1.80;;;14.20;99.90;;;;;;5099966;28;20032;-69
2022/09/03 05:28:29;;;;;;;8.80;1.98;;;14.20;99.90;;;;;;5112179;28;20039;-68
2022/09/03 05:30:59;;;;;;;6.63;2.22;;;14.20;99.90;;;;;;5103282;27;20028;-69
2022/09/03 05:33:26;;;;;;;5.85;1.90;;;14.10;99.90;;;;;;5100707;27;20044;-69
2022/09/03 05:35:52;;;;;;;7.45;1.90;;;14.20;99.90;;;;;;5095990;28;20043;-69
2022/09/03 05:38:18;;;;;;;5.80;1.80;;;14.20;99.90;;;;;;5112830;27;20043;-69
2022/09/03 05:40:44;;;;;;;7.95;2.00;;;14.30;99.90;;;;;;5095790;28;20446;-69
2022/09/03 05:43:10;;;;;;;5.43;1.63;;;14.30;99.90;;;;;;5100089;28;20503;-68
2022/09/03 05:45:35;;;;;;;4.40;1.67;;;14.20;99.90;;;;;;5106259;28;20388;-69
2022/09/03 05:48:02;;;;;;;5.35;1.70;;;14.20;99.90;;;;;;5104939;28;20032;-68
2022/09/03 05:50:27;;;;;;;5.07;2.05;;;14.30;99.90;;;;;;5110939;28;20449;-69
2022/09/03 05:52:53;;;;;;;4.82;2.20;;;14.40;99.90;;;;;;5102658;28;20043;-68
2022/09/03 05:55:19;;;;;;;5.20;2.03;;;14.40;99.90;;;;;;5106062;27;20077;-68
2022/09/03 05:57:50;;;;;;;6.40;1.77;;;14.40;99.90;;;;;;5097875;28;20043;-68
2022/09/03 06:00:18;;;;;;;13.65;3.60;;;14.40;99.90;;;;;;5113753;27;20035;-68
2022/09/03 06:02:50;;;;;;;8.35;2.22;;;14.40;99.90;;;;;;5095793;28;20431;-69
2022/09/03 06:05:17;;;;;;;;;;;14.50;99.90;;;;;;5094742;28;20460;-68
2022/09/03 06:07:43;;;;;;;4.78;2.00;;;14.50;99.90;;;;;;5095274;28;20011;-68
2022/09/03 06:10:11;;;;;;;4.65;1.75;;;14.50;99.90;;;;;;5110755;28;20491;-68
2022/09/03 06:12:37;;;;;;;4.95;1.75;;;14.50;99.90;;;;;;5113873;28;20036;-68
2022/09/03 06:15:04;;;;;;;4.70;1.70;;;14.50;99.90;;;;;;5096217;28;20506;-76
2022/09/03 06:17:30;;;;;;;4.68;1.80;;;14.60;99.90;;;;;;5094895;28;20093;-68
2022/09/03 06:19:56;;;;;;;6.15;2.03;;;14.60;99.90;;;;;;5110320;28;20135;-68
2022/09/03 06:22:23;;;;;;;4.78;1.95;;;14.60;99.90;;;;;;5097219;28;20040;-68
2022/09/03 06:24:49;;;;;;;7.53;2.75;;;14.70;99.90;;;;;;5111003;28;20039;-69
2022/09/03 06:27:14;;;;;;;5.10;2.13;;;14.60;99.90;;;;;;5114892;28;20036;-68
2022/09/03 06:29:40;;;;;;;5.43;2.33;;;14.70;99.90;;;;;;5113921;28;20123;-68
2022/09/03 06:32:06;;;;;;;3.22;1.83;;;14.70;99.90;;;;;;5114999;28;20063;-69
2022/09/03 06:34:31;;;;;;;4.13;2.00;;;14.80;99.90;;;;;;5114944;28;20081;-68
2022/09/03 06:36:58;;;;;;;6.78;2.00;;;14.90;99.90;;;;;;5115001;28;20039;-68
2022/09/03 06:39:25;;;;;;;3.97;1.77;;;14.80;99.90;;;;;;5110663;28;21004;-68
2022/09/03 06:41:51;;;;;;;3.03;1.70;;;14.80;99.90;;;;;;5114123;28;20077;-68
2022/09/03 06:44:16;;;;;;;5.80;1.80;;;14.90;99.90;;;;;;5113435;28;20031;-68
2022/09/03 06:46:42;;;;;;;4.07;1.98;;;15.00;99.90;;;;;;5114865;28;20035;-68
2022/09/03 06:49:09;;;;;;;4.63;1.95;;;15.10;99.90;;;;;;5114670;28;20392;-68
2022/09/03 06:51:36;;;;;;;4.38;1.67;;;15.10;99.90;;;;;;5114416;28;20063;-68
2022/09/03 06:54:07;;;;;;;3.25;1.77;;;15.30;99.90;;;;;;5114576;28;20092;-68
2022/09/03 06:56:34;;;;;;;4.88;1.83;;;15.40;99.90;;;;;;5114068;28;20032;-68
2022/09/03 06:59:05;;;;;;;4.97;1.80;;;15.50;99.90;;;;;;5114478;28;20114;-68
2022/09/03 07:01:32;;;;;;;3.72;1.80;;;15.60;99.90;;;;;;5114412;28;20039;-68
2022/09/03 07:04:00;;;;;;;4.20;1.80;;;15.60;99.90;;;;;;5113131;28;20043;-68
2022/09/03 07:06:28;;;;;;;3.88;1.70;;;15.70;99.90;;;;;;5113099;28;20039;-68
2022/09/03 07:08:54;;;;;;;5.30;1.92;;;15.70;99.90;;;;;;5113398;28;20039;-68
2022/09/03 07:11:22;;;;;;;4.82;1.92;;;15.90;99.90;;;;;;5114306;28;20044;-68
2022/09/03 07:13:50;;;;;;;4.82;1.70;;;15.90;99.90;;;;;;5114142;28;20062;-68
2022/09/03 07:16:17;;;;;;;3.47;1.70;;;16.00;99.90;;;;;;5114231;28;20043;-68
2022/09/03 07:18:43;;;;;;;4.32;1.75;;;16.00;99.90;;;;;;5112903;28;20044;-68
2022/09/03 07:21:11;;;;;;;4.82;1.88;;;16.10;99.90;;;;;;5114215;28;20522;-68
2022/09/03 07:23:38;;;;;;;4.68;1.70;;;16.10;99.90;;;;;;5112758;28;20058;-68
2022/09/03 07:26:11;;;;;;;7.68;2.10;;;16.20;99.90;;;;;;5112683;28;20095;-68
2022/09/03 07:28:38;;;;;;;4.57;2.05;;;16.30;99.90;;;;;;5113312;28;20115;-68
2022/09/03 07:31:05;;;;;;;4.70;1.77;;;16.50;99.90;;;;;;5114145;28;20040;-68
2022/09/03 07:33:31;;;;;;;7.30;2.00;;;16.50;99.90;;;;;;5095978;28;20492;-68
2022/09/03 07:36:06;;;;;;;7.00;1.92;;;16.50;99.90;;;;;;5113862;28;20407;-68
2022/09/03 07:38:33;;;;;;;4.03;1.70;;;16.70;99.90;;;;;;5113875;28;20082;-68
2022/09/03 07:41:00;;;;;;;5.60;1.80;;;16.70;99.90;;;;;;5114112;28;20135;-68
2022/09/03 07:43:28;;;;;;;1.75;1.23;;;16.90;99.90;;;;;;5113725;28;20479;-68
2022/09/03 07:45:55;;;;;;;4.18;1.52;;;17.00;99.90;;;;;;5113891;28;20038;-68
2022/09/03 07:48:22;;;;;;;4.50;1.77;;;17.00;99.90;;;;;;5113994;28;20388;-68
2022/09/03 07:50:47;;;;;;;7.53;2.00;;;17.10;99.90;;;;;;5113796;28;20089;-68
2022/09/03 07:53:16;;;;;;;3.80;1.60;;;17.20;99.90;;;;;;5113702;28;20039;-68
2022/09/03 07:55:43;;;;;;;5.30;1.70;;;17.30;99.90;;;;;;5113716;28;20035;-68
2022/09/03 07:58:11;;;;;;;4.45;1.50;;;17.30;99.90;;;;;;5105701;28;20043;-69
2022/09/03 08:00:37;;;;;;;4.00;1.40;;;17.50;99.90;;;;;;5092847;28;20036;-72
2022/09/03 08:03:07;;;;;;;2.88;1.55;;;17.60;99.90;;;;;;5106590;28;20039;-69
2022/09/03 08:05:34;;;;;;;3.25;1.38;;;17.70;99.90;;;;;;5116297;28;20054;-68
2022/09/03 08:08:00;;;;;;;7.88;1.67;;;18.00;99.90;;;;;;5118005;28;20047;-69
2022/09/03 08:10:29;;;;;;;5.65;1.50;;;18.00;99.80;;;;;;5116549;28;20040;-69
2022/09/03 08:12:55;;;;;;;3.72;1.40;;;18.10;99.90;;;;;;5116628;28;20047;-68
2022/09/03 08:15:20;;;;;;;3.15;1.40;;;18.20;99.90;;;;;;5117889;28;20051;-69
2022/09/03 08:17:46;;;;;;;7.38;2.25;;;18.40;99.90;;;;;;5104833;28;20119;-68
2022/09/03 08:20:11;;;;;;;4.95;1.40;;;18.60;99.70;;;;;;5112625;28;20081;-69
2022/09/03 08:22:37;;;;;;;3.17;1.38;;;18.50;98.90;;;;;;5117565;28;20144;-68
2022/09/03 08:25:03;;;;;;;3.03;1.27;;;18.60;99.20;;;;;;5116169;28;20035;-68
2022/09/03 08:27:30;;;;;;;3.85;1.50;;;18.70;99.10;;;;;;5114718;27;20131;-68
2022/09/03 08:29:56;;;;;;;4.68;1.60;;;18.70;99.10;;;;;;5099076;28;20043;-69
2022/09/03 08:32:21;;;;;;;2.03;1.30;;;18.80;98.60;;;;;;5117333;28;20097;-68
2022/09/03 08:34:47;;;;;;;1.77;1.15;;;18.90;98.80;;;;;;5117194;28;20145;-68
2022/09/03 08:37:13;;;;;;;4.45;1.20;;;19.00;99.00;;;;;;5117144;28;20039;-69
2022/09/03 08:39:38;;;;;;;2.10;1.10;;;19.10;99.60;;;;;;5117366;28;20042;-69
2022/09/03 08:42:07;;;;;;;4.97;1.35;;;19.20;98.20;;;;;;5098271;28;20069;-69
2022/09/03 08:44:57;;;;;;;1.52;0.88;;;19.40;98.10;;;;;;5096866;28;20040;-69
2022/09/03 08:47:59;;;;;;;4.93;1.45;;;19.50;97.90;;;;;;5096596;28;20438;-69
2022/09/03 08:50:28;;;;;;;3.00;1.10;;;19.80;97.60;;;;;;5088028;28;20040;-69
2022/09/03 08:53:12;;;;;;;5.03;1.50;;;19.80;97.40;;;;;;5096561;28;20036;-69
2022/09/03 08:55:50;;;;;;;3.63;1.45;;;19.90;95.90;;;;;;5103776;28;20489;-68
2022/09/03 08:58:19;;;;;;;4.88;1.88;;;19.90;94.70;;;;;;5100501;28;20047;-69
2022/09/03 09:01:10;;;;;;;3.63;1.50;;;19.90;95.90;;;;;;5115578;28;20075;-68
2022/09/03 09:03:44;;;;;;;7.55;1.40;;;20.00;95.10;;;;;;5116157;28;20047;-68
2022/09/03 09:06:29;;;;;;;3.05;1.10;;;20.20;95.70;;;;;;5091274;27;20051;-68
2022/09/03 09:09:09;;;;;;;8.00;1.40;;;20.30;96.10;;;;;;5096025;28;20119;-68
2022/09/03 09:11:50;;;;;;;4.32;1.38;;;20.30;93.50;;;;;;5104812;28;20097;-68
2022/09/03 09:14:25;;;;;;;4.30;1.20;;;20.40;93.80;;;;;;5113780;28;20055;-68
2022/09/03 09:17:21;;;;;;;3.33;1.33;;;20.40;94.50;;;;;;5108614;28;20105;-69
2022/09/03 09:20:08;;;;;;;2.80;1.40;;;20.60;94.00;;;;;;5114730;28;20031;-68
2022/09/03 09:22:40;;;;;;;5.53;1.60;;;20.70;93.50;;;;;;5100468;28;20075;-68
2022/09/03 09:25:15;;;;;;;3.38;1.30;;;20.90;94.10;;;;;;5104964;28;20062;-68
2022/09/03 09:27:59;;;;;;;3.20;1.35;;;21.00;93.90;;;;;;5114046;28;20036;-69
2022/09/03 09:30:26;;;;;;;2.40;1.45;;;21.10;92.30;;;;;;5102998;28;20063;-69
2022/09/03 09:32:52;;;;;;;2.47;1.10;;;21.20;92.40;;;;;;5102981;28;20056;-69
2022/09/03 09:35:18;;;;;;;3.65;1.27;;;21.30;92.80;;;;;;5096032;28;20447;-69
2022/09/03 09:37:57;;;;;;;2.20;1.20;;;21.50;92.60;;;;;;5102772;27;20040;-69
2022/09/03 09:40:32;;;;;;;4.80;1.42;;;21.60;91.80;;;;;;5103531;28;20507;-69
2022/09/03 09:43:16;;;;;;;4.70;1.40;;;21.70;91.30;;;;;;5103678;28;20047;-68
2022/09/03 09:45:44;;;;;;;3.88;1.15;;;21.70;90.40;;;;;;5097922;28;20622;-69
2022/09/03 09:48:30;;;;;;;2.83;1.20;;;21.70;91.30;;;;;;5094992;28;20024;-69
2022/09/03 09:51:10;;;;;;;3.25;1.10;;;21.80;91.00;;;;;;5098674;28;20036;-68
2022/09/03 09:53:36;;;;;;;4.68;1.10;;;22.00;91.10;;;;;;5102183;28;20035;-69
2022/09/03 09:56:02;;;;;;;4.15;1.38;;;22.10;91.00;;;;;;5103351;28;20055;-68
2022/09/03 09:58:32;;;;;;;4.28;1.35;;;22.30;89.60;;;;;;5101457;28;20035;-69
2022/09/03 10:01:21;;;;;;;4.25;1.15;;;22.30;89.10;;;;;;5125307;27;20500;-69
2022/09/03 10:03:58;;;;;;;3.58;1.38;;;22.40;86.70;;;;;;5110385;28;20035;-68
2022/09/03 10:09:17;;;;;;;3.42;0.98;;;22.50;85.50;;;;;;5110042;28;20040;-68
2022/09/03 10:11:50;;;;;;;2.72;1.00;;;22.60;84.50;;;;;;5114533;28;20141;-69
2022/09/03 10:14:50;;;;;;;4.22;1.20;;;22.70;81.80;;;;;;5094980;28;20078;-68
2022/09/03 10:17:30;;;;;;;3.08;1.00;;;22.70;80.00;;;;;;5110966;28;20040;-69
2022/09/03 10:20:29;;;;;;;4.32;1.15;;;22.90;81.70;;;;;;5112433;27;20043;-68
2022/09/03 10:23:16;;;;;;;2.67;1.10;;;22.90;79.60;;;;;;5095208;28;20069;-68
2022/09/03 10:25:54;;;;;;;3.53;1.20;;;22.90;77.00;;;;;;5101763;28;20070;-68
2022/09/03 10:28:23;;;;;;;6.20;1.38;;;22.90;80.30;;;;;;5113914;28;20035;-69
2022/09/03 10:31:30;;;;;;;4.50;1.17;;;23.00;78.70;;;;;;5094554;28;20531;-69
2022/09/03 10:34:17;;;;;;;5.60;1.40;;;23.20;75.90;;;;;;5106008;28;20100;-69
2022/09/03 10:36:58;;;;;;;3.90;1.33;;;23.20;76.50;;;;;;5112451;28;20058;-69
2022/09/03 10:39:39;;;;;;;4.20;1.25;;;23.20;76.90;;;;;;5107397;28;20070;-69
2022/09/03 10:42:15;;;;;;;3.58;1.00;;;23.40;76.00;;;;;;5106492;28;20044;-69
2022/09/03 10:45:06;;;;;;;2.83;1.30;;;23.50;76.60;;;;;;5111464;28;20038;-68
2022/09/03 10:47:50;;;;;;;3.53;1.00;;;23.60;74.50;;;;;;5093682;28;20043;-69
2022/09/03 10:50:22;;;;;;;3.03;1.15;;;23.50;70.90;;;;;;5093584;28;20507;-68
2022/09/03 10:53:05;;;;;;;4.88;1.30;;;23.60;71.40;;;;;;5105129;28;20377;-68
2022/09/03 10:55:45;;;;;;;1.80;1.10;;;23.50;68.70;;;;;;5101086;28;20044;-69
2022/09/03 10:58:26;;;;;;;5.70;1.23;;;23.50;70.60;;;;;;5093654;28;20050;-76
2022/09/03 11:00:56;;;;;;;2.42;1.10;;;23.80;70.40;;;;;;5092770;28;20067;-69
2022/09/03 11:03:44;;;;;;;4.85;0.93;;;23.80;70.20;;;;;;5094470;28;20050;-69
2022/09/03 11:06:18;;;;;;;4.95;1.20;;;23.90;68.50;;;;;;5102435;28;20120;-69
2022/09/03 11:09:04;;;;;;;3.28;0.98;;;23.90;68.20;;;;;;5112858;28;21811;-68
2022/09/03 11:11:36;;;;;;;4.90;1.30;;;23.80;65.30;;;;;;5106245;28;20484;-70
2022/09/03 11:14:08;;;;;;;4.05;1.27;;;23.80;67.50;;;;;;5110094;28;20519;-69
2022/09/03 11:16:43;;;;;;;5.75;1.33;;;23.80;66.50;;;;;;5103795;28;20054;-69
2022/09/03 11:19:15;;;;;;;6.35;1.20;;;23.80;66.80;;;;;;5113778;28;20476;-69
2022/09/03 11:21:42;;;;;;;;;;;23.80;66.30;;;;;;5098004;28;20548;-68
2022/09/03 11:24:31;;;;;;;4.43;0.95;;;23.90;63.30;;;;;;5102826;28;19999;-70
2022/09/03 11:27:32;;;;;;;4.80;1.10;;;24.00;65.00;;;;;;5095949;28;20105;-69
2022/09/03 11:30:06;;;;;;;7.60;1.48;;;24.00;63.90;;;;;;5104372;28;20057;-69
2022/09/03 11:32:53;;;;;;;1.65;0.98;;;24.10;64.50;;;;;;5102449;27;20043;-69
2022/09/03 11:35:37;;;;;;;2.50;1.38;;;24.10;64.10;;;;;;5103156;28;20078;-68
2022/09/03 11:38:20;;;;;;;2.80;1.20;;;24.00;64.50;;;;;;5104422;27;20036;-75
2022/09/03 11:40:58;;;;;;;3.65;1.20;;;24.10;63.60;;;;;;5086200;28;20041;-75
2022/09/03 11:43:23;;;;;;;3.78;1.20;;;24.20;64.00;;;;;;5094038;28;20043;-75
2022/09/03 11:46:10;;;;;;;4.25;1.00;;;24.10;61.60;;;;;;5126495;27;20093;-74
2022/09/03 11:48:42;;;;;;;2.97;1.20;;;24.10;60.60;;;;;;5093454;28;20047;-77
2022/09/03 11:51:18;;;;;;;5.28;1.27;;;24.00;61.10;;;;;;5075563;28;20362;-75
2022/09/03 11:54:03;;;;;;;3.83;1.00;;;24.00;61.80;;;;;;5127941;27;20483;-76
2022/09/03 11:56:34;;;;;;;3.53;1.10;;;24.10;59.90;;;;;;5133905;27;20492;-70
2022/09/03 11:59:14;;;;;;;3.83;1.10;;;24.10;62.00;;;;;;5092945;28;20126;-70
2022/09/03 12:01:51;;;;;;;4.25;1.25;;;24.20;60.60;;;;;;5092737;28;20051;-70
2022/09/03 12:04:24;;;;;;;2.47;1.15;;;24.20;62.40;;;;;;5099109;28;20031;-70
2022/09/03 12:07:08;;;;;;;6.78;1.20;;;24.20;61.60;;;;;;5113133;28;20040;-70
2022/09/03 12:09:44;;;;;;;3.17;1.00;;;24.20;61.00;;;;;;5113366;28;20055;-70
2022/09/03 12:12:40;;;;;;;4.82;1.10;;;24.20;60.50;;;;;;5108492;28;20070;-70
2022/09/03 12:15:34;;;;;;;2.53;1.20;;;24.20;59.60;;;;;;5113120;28;20047;-71
2022/09/03 12:18:19;;;;;;;3.40;1.20;;;24.20;58.90;;;;;;5112624;28;20039;-71
2022/09/03 12:20:47;;;;;;;3.78;1.08;;;24.30;59.40;;;;;;5112882;28;20043;-71
2022/09/03 12:23:27;;;;;;;3.15;1.20;;;24.20;59.10;;;;;;5113226;28;20044;-70
2022/09/03 12:25:52;;;;;;;3.75;1.60;;;24.20;59.30;;;;;;5109069;28;20044;-70
2022/09/03 12:28:22;;;;;;;2.63;1.20;;;24.20;59.60;;;;;;5094008;28;20123;-70
2022/09/03 12:30:52;;;;;;;4.22;1.20;;;24.20;60.10;;;;;;5112938;28;20036;-70
2022/09/03 12:33:20;;;;;;;1.83;1.02;;;24.20;59.20;;;;;;5111490;28;20399;-70
2022/09/03 12:35:59;;;;;;;3.88;1.08;;;24.20;59.50;;;;;;5105316;28;20123;-70
2022/09/03 12:38:28;;;;;;;4.78;1.33;;;24.20;58.90;;;;;;5101342;28;20437;-71
2022/09/03 12:40:54;;;;;;;1.98;1.05;;;24.20;58.20;;;;;;5092727;28;20075;-71
2022/09/03 12:43:25;;;;;;;3.35;1.20;;;24.30;59.10;;;;;;5092159;28;20036;-70
2022/09/03 12:45:51;;;;;;;3.20;1.67;;;24.20;56.90;;;;;;5093763;28;20036;-71
2022/09/03 12:48:18;;;;;;;3.05;1.00;;;24.20;57.80;;;;;;5112451;28;20168;-71
2022/09/03 12:50:46;;;;;;;5.78;1.30;;;24.30;58.40;;;;;;5114965;28;20399;-70
2022/09/03 12:53:16;;;;;;;2.75;1.10;;;24.20;57.60;;;;;;5109582;28;20044;-71
2022/09/03 12:55:46;;;;;;;3.90;1.40;;;24.20;59.20;;;;;;5096477;28;20504;-71
2022/09/03 12:58:14;;;;;;;5.78;1.35;;;24.20;58.10;;;;;;5097100;28;20040;-73
2022/09/03 13:00:59;;;;;;;3.15;1.33;;;24.10;58.60;;;;;;5094651;28;20055;-73
2022/09/03 13:03:42;;;;;;;2.50;1.00;;;24.00;56.10;;;;;;5096064;28;20040;-72
2022/09/03 13:06:16;;;;;;;6.78;1.30;;;24.00;59.30;;;;;;5114341;28;20032;-73
2022/09/03 13:08:47;;;;;;;3.40;1.25;;;24.10;58.80;;;;;;5098096;28;20134;-73
2022/09/03 13:11:17;;;;;;;2.43;1.13;;;24.00;58.30;;;;;;5114849;28;20071;-74
2022/09/03 13:14:10;;;;;;;3.35;1.10;;;24.00;59.30;;;;;;5107198;28;20064;-74
2022/09/03 13:16:49;;;;;;;5.50;1.20;;;24.10;58.50;;;;;;5095448;28;20121;-74
2022/09/03 13:19:39;;;;;;;2.38;1.00;;;24.20;59.90;;;;;;5095914;28;20040;-74
2022/09/03 13:22:39;;;;;;;2.17;1.17;;;24.20;58.90;;;;;;5144139;27;20107;-76